sensor_id;sensor_type;location;lat;lon;timestamp;P1;P2;P0
69222;PMS7003;56514;51.816;-0.026;2023-03-04T00:01:26;0.00;0.00;0.00
69222;PMS7003;56514;51.816;-0.026;2023-03-04T00:04:31;0.00;0.00;0.00
69222;PMS7003;56514;51.816;-0.026;2023-03-04T00:07:36;0.00;0.00;0.00
69222;PMS7003;56514;51.816;-0.026;2023-03-04T00:10:46;0.00;0.00;0.00
69222;PMS7003;56514;51.816;-0.026;2023-03-04T00:13:56;0.00;0.00;0.00
69222;PMS7003;56514;51.816;-0.026;2023-03-04T00:17:06;0.00;0.00;0.00
69222;PMS7003;56514;51.816;-0.026;2023-03-04T00:20:16;0.00;0.00;0.00
69222;PMS7003;56514;51.816;-0.026;2023-03-04T00:23:27;0.00;0.00;0.00
69222;PMS7003;56514;51.816;-0.026;2023-03-04T00:26:36;0.00;0.00;0.00
69222;PMS7003;56514;51.816;-0.026;2023-03-04T00:29:45;0.00;0.00;0.00
69222;PMS7003;56514;51.816;-0.026;2023-03-04T00:32:54;0.00;0.00;0.00
69222;PMS7003;56514;51.816;-0.026;2023-03-04T00:36:04;0.00;0.00;0.00
69222;PMS7003;56514;51.816;-0.026;2023-03-04T00:39:14;0.00;0.00;0.00
69222;PMS7003;56514;51.816;-0.026;2023-03-04T00:42:00;0.00;0.00;0.00
69222;PMS7003;56514;51.816;-0.026;2023-03-04T00:44:46;0.00;0.00;0.00
69222;PMS7003;56514;51.816;-0.026;2023-03-04T00:47:31;0.00;0.00;0.00
69222;PMS7003;56514;51.816;-0.026;2023-03-04T00:50:16;0.00;0.00;0.00
69222;PMS7003;56514;51.816;-0.026;2023-03-04T00:53:01;0.00;0.00;0.00
69222;PMS7003;56514;51.816;-0.026;2023-03-04T00:55:47;0.00;0.00;0.00
69222;PMS7003;56514;51.816;-0.026;2023-03-04T00:58:34;0.00;0.00;0.00
69222;PMS7003;56514;51.816;-0.026;2023-03-04T01:01:19;0.00;0.00;0.00
69222;PMS7003;56514;51.816;-0.026;2023-03-04T01:04:04;0.00;0.00;0.00
69222;PMS7003;56514;51.816;-0.026;2023-03-04T01:06:49;0.00;0.00;0.00
69222;PMS7003;56514;51.816;-0.026;2023-03-04T01:09:34;0.00;0.00;0.00
69222;PMS7003;56514;51.816;-0.026;2023-03-04T01:12:19;0.00;0.00;0.00
69222;PMS7003;56514;51.816;-0.026;2023-03-04T01:15:05;0.00;0.00;0.00
69222;PMS7003;56514;51.816;-0.026;2023-03-04T01:17:50;0.00;0.00;0.00
69222;PMS7003;56514;51.816;-0.026;2023-03-04T01:20:34;0.00;0.00;0.00
69222;PMS7003;56514;51.816;-0.026;2023-03-04T01:23:19;0.00;0.00;0.00
69222;PMS7003;56514;51.816;-0.026;2023-03-04T01:26:04;0.00;0.00;0.00
69222;PMS7003;56514;51.816;-0.026;2023-03-04T01:28:49;0.00;0.00;0.00
69222;PMS7003;56514;51.816;-0.026;2023-03-04T01:31:34;0.00;0.00;0.00
69222;PMS7003;56514;51.816;-0.026;2023-03-04T01:34:18;0.00;0.00;0.00
69222;PMS7003;56514;51.816;-0.026;2023-03-04T01:37:03;0.00;0.00;0.00
69222;PMS7003;56514;51.816;-0.026;2023-03-04T01:39:48;0.00;0.00;0.00
69222;PMS7003;56514;51.816;-0.026;2023-03-04T01:42:33;0.00;0.00;0.00
69222;PMS7003;56514;51.816;-0.026;2023-03-04T01:45:19;0.00;0.00;0.00
69222;PMS7003;56514;51.816;-0.026;2023-03-04T01:48:05;0.00;0.00;0.00
69222;PMS7003;56514;51.816;-0.026;2023-03-04T01:50:49;0.00;0.00;0.00
69222;PMS7003;56514;51.816;-0.026;2023-03-04T01:53:35;0.00;0.00;0.00
69222;PMS7003;56514;51.816;-0.026;2023-03-04T01:56:24;0.00;0.00;0.00
69222;PMS7003;56514;51.816;-0.026;2023-03-04T01:59:16;0.00;0.00;0.00
69222;PMS7003;56514;51.816;-0.026;2023-03-04T02:02:01;0.00;0.00;0.00
69222;PMS7003;56514;51.816;-0.026;2023-03-04T02:04:46;0.00;0.00;0.00
69222;PMS7003;56514;51.816;-0.026;2023-03-04T02:07:31;0.00;0.00;0.00
69222;PMS7003;56514;51.816;-0.026;2023-03-04T02:10:17;0.00;0.00;0.00
69222;PMS7003;56514;51.816;-0.026;2023-03-04T02:13:02;0.00;0.00;0.00
69222;PMS7003;56514;51.816;-0.026;2023-03-04T02:15:48;0.00;0.00;0.00
69222;PMS7003;56514;51.816;-0.026;2023-03-04T02:18:33;0.50;0.50;0.00
69222;PMS7003;56514;51.816;-0.026;2023-03-04T02:21:22;0.00;0.00;0.00
69222;PMS7003;56514;51.816;-0.026;2023-03-04T02:26:54;0.00;0.00;0.00
69222;PMS7003;56514;51.816;-0.026;2023-03-04T02:29:39;0.00;0.00;0.00
69222;PMS7003;56514;51.816;-0.026;2023-03-04T02:32:24;0.00;0.00;0.00
69222;PMS7003;56514;51.816;-0.026;2023-03-04T02:35:13;0.00;0.00;0.00
69222;PMS7003;56514;51.816;-0.026;2023-03-04T02:38:01;0.00;0.00;0.00
69222;PMS7003;56514;51.816;-0.026;2023-03-04T02:40:47;0.00;0.00;0.00
69222;PMS7003;56514;51.816;-0.026;2023-03-04T02:43:39;0.00;0.00;0.00
69222;PMS7003;56514;51.816;-0.026;2023-03-04T02:46:24;1.00;1.00;0.00
69222;PMS7003;56514;51.816;-0.026;2023-03-04T02:49:09;0.00;0.00;0.00
69222;PMS7003;56514;51.816;-0.026;2023-03-04T02:52:02;0.00;0.00;0.00
69222;PMS7003;56514;51.816;-0.026;2023-03-04T02:54:49;0.00;0.00;0.00
69222;PMS7003;56514;51.816;-0.026;2023-03-04T02:57:34;0.00;0.00;0.00
69222;PMS7003;56514;51.816;-0.026;2023-03-04T03:00:19;0.00;0.00;0.00
69222;PMS7003;56514;51.816;-0.026;2023-03-04T03:03:05;0.00;0.00;0.00
69222;PMS7003;56514;51.816;-0.026;2023-03-04T03:05:50;0.00;0.00;0.00
69222;PMS7003;56514;51.816;-0.026;2023-03-04T03:08:40;0.00;0.00;0.00
69222;PMS7003;56514;51.816;-0.026;2023-03-04T03:11:25;0.25;0.25;0.00
69222;PMS7003;56514;51.816;-0.026;2023-03-04T03:14:10;0.00;0.00;0.00
69222;PMS7003;56514;51.816;-0.026;2023-03-04T03:16:54;0.00;0.00;0.00
69222;PMS7003;56514;51.816;-0.026;2023-03-04T03:19:41;0.00;0.00;0.00
69222;PMS7003;56514;51.816;-0.026;2023-03-04T03:22:26;0.00;0.00;0.00
69222;PMS7003;56514;51.816;-0.026;2023-03-04T03:25:11;0.00;0.00;0.00
69222;PMS7003;56514;51.816;-0.026;2023-03-04T03:27:58;0.00;0.00;0.00
69222;PMS7003;56514;51.816;-0.026;2023-03-04T03:30:43;0.00;0.00;0.00
69222;PMS7003;56514;51.816;-0.026;2023-03-04T03:33:27;0.00;0.00;0.00
69222;PMS7003;56514;51.816;-0.026;2023-03-04T03:36:12;0.00;0.00;0.00
69222;PMS7003;56514;51.816;-0.026;2023-03-04T03:38:57;0.00;0.00;0.00
69222;PMS7003;56514;51.816;-0.026;2023-03-04T03:41:42;0.00;0.00;0.00
69222;PMS7003;56514;51.816;-0.026;2023-03-04T03:44:27;0.00;0.00;0.00
69222;PMS7003;56514;51.816;-0.026;2023-03-04T03:47:12;0.00;0.00;0.00
69222;PMS7003;56514;51.816;-0.026;2023-03-04T03:49:57;0.00;0.00;0.00
69222;PMS7003;56514;51.816;-0.026;2023-03-04T03:52:42;0.00;0.00;0.00
69222;PMS7003;56514;51.816;-0.026;2023-03-04T03:55:27;0.00;0.00;0.00
69222;PMS7003;56514;51.816;-0.026;2023-03-04T03:58:12;0.00;0.00;0.00
69222;PMS7003;56514;51.816;-0.026;2023-03-04T04:00:57;0.00;0.00;0.00
69222;PMS7003;56514;51.816;-0.026;2023-03-04T04:03:42;0.00;0.00;0.00
69222;PMS7003;56514;51.816;-0.026;2023-03-04T04:06:27;0.00;0.00;0.00
69222;PMS7003;56514;51.816;-0.026;2023-03-04T04:09:12;0.00;0.00;0.00
69222;PMS7003;56514;51.816;-0.026;2023-03-04T04:11:57;0.75;0.75;0.00
69222;PMS7003;56514;51.816;-0.026;2023-03-04T04:14:42;0.00;0.00;0.00
69222;PMS7003;56514;51.816;-0.026;2023-03-04T04:17:27;0.00;0.00;0.00
69222;PMS7003;56514;51.816;-0.026;2023-03-04T04:20:12;0.00;0.00;0.00
69222;PMS7003;56514;51.816;-0.026;2023-03-04T04:22:57;0.00;0.00;0.00
69222;PMS7003;56514;51.816;-0.026;2023-03-04T04:25:42;0.00;0.00;0.00
69222;PMS7003;56514;51.816;-0.026;2023-03-04T04:28:27;0.00;0.00;0.00
69222;PMS7003;56514;51.816;-0.026;2023-03-04T04:31:12;0.00;0.00;0.00
69222;PMS7003;56514;51.816;-0.026;2023-03-04T04:33:57;0.00;0.00;0.00
69222;PMS7003;56514;51.816;-0.026;2023-03-04T04:36:42;0.00;0.00;0.00
69222;PMS7003;56514;51.816;-0.026;2023-03-04T04:39:26;0.00;0.00;0.00
69222;PMS7003;56514;51.816;-0.026;2023-03-04T04:42:11;0.00;0.00;0.00
69222;PMS7003;56514;51.816;-0.026;2023-03-04T04:44:56;0.00;0.00;0.00
69222;PMS7003;56514;51.816;-0.026;2023-03-04T04:47:41;0.00;0.00;0.00
69222;PMS7003;56514;51.816;-0.026;2023-03-04T04:50:26;0.00;0.00;0.00
69222;PMS7003;56514;51.816;-0.026;2023-03-04T04:53:11;0.00;0.00;0.00
69222;PMS7003;56514;51.816;-0.026;2023-03-04T04:55:57;0.00;0.00;0.00
69222;PMS7003;56514;51.816;-0.026;2023-03-04T04:58:43;0.00;0.00;0.00
69222;PMS7003;56514;51.816;-0.026;2023-03-04T05:01:28;0.25;0.25;0.25
69222;PMS7003;56514;51.816;-0.026;2023-03-04T05:04:14;0.00;0.00;0.00
69222;PMS7003;56514;51.816;-0.026;2023-03-04T05:06:59;0.00;0.00;0.00
69222;PMS7003;56514;51.816;-0.026;2023-03-04T05:09:44;0.00;0.00;0.00
69222;PMS7003;56514;51.816;-0.026;2023-03-04T05:12:29;0.00;0.00;0.00
69222;PMS7003;56514;51.816;-0.026;2023-03-04T05:15:14;0.00;0.00;0.00
69222;PMS7003;56514;51.816;-0.026;2023-03-04T05:17:59;0.00;0.00;0.00
69222;PMS7003;56514;51.816;-0.026;2023-03-04T05:20:44;0.00;0.00;0.00
69222;PMS7003;56514;51.816;-0.026;2023-03-04T05:23:34;0.00;0.00;0.00
69222;PMS7003;56514;51.816;-0.026;2023-03-04T05:26:21;0.00;0.00;0.00
69222;PMS7003;56514;51.816;-0.026;2023-03-04T05:29:06;0.00;0.00;0.00
69222;PMS7003;56514;51.816;-0.026;2023-03-04T05:31:51;0.00;0.00;0.00
69222;PMS7003;56514;51.816;-0.026;2023-03-04T05:34:36;0.00;0.00;0.00
69222;PMS7003;56514;51.816;-0.026;2023-03-04T05:37:20;0.00;0.00;0.00
69222;PMS7003;56514;51.816;-0.026;2023-03-04T05:40:06;0.00;0.00;0.00
69222;PMS7003;56514;51.816;-0.026;2023-03-04T05:42:52;0.00;0.00;0.00
69222;PMS7003;56514;51.816;-0.026;2023-03-04T05:45:41;0.00;0.00;0.00
69222;PMS7003;56514;51.816;-0.026;2023-03-04T05:48:27;0.00;0.00;0.00
69222;PMS7003;56514;51.816;-0.026;2023-03-04T05:51:12;0.00;0.00;0.00
69222;PMS7003;56514;51.816;-0.026;2023-03-04T05:53:57;0.00;0.00;0.00
69222;PMS7003;56514;51.816;-0.026;2023-03-04T05:56:42;0.00;0.00;0.00
69222;PMS7003;56514;51.816;-0.026;2023-03-04T05:59:26;0.00;0.00;0.00
69222;PMS7003;56514;51.816;-0.026;2023-03-04T06:02:12;6.75;6.75;6.25
69222;PMS7003;56514;51.816;-0.026;2023-03-04T06:04:56;1.00;1.00;1.00
69222;PMS7003;56514;51.816;-0.026;2023-03-04T06:07:41;77.75;65.00;43.50
69222;PMS7003;56514;51.816;-0.026;2023-03-04T06:10:27;36.25;33.50;22.25
69222;PMS7003;56514;51.816;-0.026;2023-03-04T06:13:12;7.00;7.00;6.00
69222;PMS7003;56514;51.816;-0.026;2023-03-04T06:15:57;8.50;8.50;7.50
69222;PMS7003;56514;51.816;-0.026;2023-03-04T06:18:43;3.00;3.00;1.00
69222;PMS7003;56514;51.816;-0.026;2023-03-04T06:21:28;1.00;1.00;1.00
69222;PMS7003;56514;51.816;-0.026;2023-03-04T06:24:13;0.00;0.00;0.00
69222;PMS7003;56514;51.816;-0.026;2023-03-04T06:26:58;0.00;0.00;0.00
69222;PMS7003;56514;51.816;-0.026;2023-03-04T06:29:43;0.00;0.00;0.00
69222;PMS7003;56514;51.816;-0.026;2023-03-04T06:32:28;0.00;0.00;0.00
69222;PMS7003;56514;51.816;-0.026;2023-03-04T06:35:14;0.00;0.00;0.00
69222;PMS7003;56514;51.816;-0.026;2023-03-04T06:37:59;0.25;0.25;0.00
69222;PMS7003;56514;51.816;-0.026;2023-03-04T06:40:44;0.00;0.00;0.00
69222;PMS7003;56514;51.816;-0.026;2023-03-04T06:43:29;0.00;0.00;0.00
69222;PMS7003;56514;51.816;-0.026;2023-03-04T06:46:14;0.00;0.00;0.00
69222;PMS7003;56514;51.816;-0.026;2023-03-04T06:48:59;0.00;0.00;0.00
69222;PMS7003;56514;51.816;-0.026;2023-03-04T06:51:44;0.00;0.00;0.00
69222;PMS7003;56514;51.816;-0.026;2023-03-04T06:54:28;0.00;0.00;0.00
69222;PMS7003;56514;51.816;-0.026;2023-03-04T06:57:13;0.00;0.00;0.00
69222;PMS7003;56514;51.816;-0.026;2023-03-04T06:59:58;0.00;0.00;0.00
69222;PMS7003;56514;51.816;-0.026;2023-03-04T07:02:47;0.00;0.00;0.00
69222;PMS7003;56514;51.816;-0.026;2023-03-04T07:05:31;0.00;0.00;0.00
69222;PMS7003;56514;51.816;-0.026;2023-03-04T07:08:16;0.00;0.00;0.00
69222;PMS7003;56514;51.816;-0.026;2023-03-04T07:11:01;0.00;0.00;0.00
69222;PMS7003;56514;51.816;-0.026;2023-03-04T07:13:46;0.00;0.00;0.00
69222;PMS7003;56514;51.816;-0.026;2023-03-04T07:16:32;0.00;0.00;0.00
69222;PMS7003;56514;51.816;-0.026;2023-03-04T07:19:17;0.00;0.00;0.00
69222;PMS7003;56514;51.816;-0.026;2023-03-04T07:22:01;0.00;0.00;0.00
69222;PMS7003;56514;51.816;-0.026;2023-03-04T07:24:47;0.00;0.00;0.00
69222;PMS7003;56514;51.816;-0.026;2023-03-04T07:27:32;0.00;0.00;0.00
69222;PMS7003;56514;51.816;-0.026;2023-03-04T07:30:17;0.00;0.00;0.00
69222;PMS7003;56514;51.816;-0.026;2023-03-04T07:33:02;0.00;0.00;0.00
69222;PMS7003;56514;51.816;-0.026;2023-03-04T07:35:47;0.00;0.00;0.00
69222;PMS7003;56514;51.816;-0.026;2023-03-04T07:38:32;0.00;0.00;0.00
69222;PMS7003;56514;51.816;-0.026;2023-03-04T07:41:17;0.00;0.00;0.00
69222;PMS7003;56514;51.816;-0.026;2023-03-04T07:44:03;0.00;0.00;0.00
69222;PMS7003;56514;51.816;-0.026;2023-03-04T07:46:49;0.00;0.00;0.00
69222;PMS7003;56514;51.816;-0.026;2023-03-04T07:49:35;0.00;0.00;0.00
69222;PMS7003;56514;51.816;-0.026;2023-03-04T07:52:20;0.00;0.00;0.00
69222;PMS7003;56514;51.816;-0.026;2023-03-04T07:55:05;0.00;0.00;0.00
69222;PMS7003;56514;51.816;-0.026;2023-03-04T07:57:50;0.00;0.00;0.00
69222;PMS7003;56514;51.816;-0.026;2023-03-04T08:00:35;0.00;0.00;0.00
69222;PMS7003;56514;51.816;-0.026;2023-03-04T08:03:20;0.00;0.00;0.00
69222;PMS7003;56514;51.816;-0.026;2023-03-04T08:06:06;1.00;1.00;0.00
69222;PMS7003;56514;51.816;-0.026;2023-03-04T08:08:57;0.00;0.00;0.00
69222;PMS7003;56514;51.816;-0.026;2023-03-04T08:11:46;0.00;0.00;0.00
69222;PMS7003;56514;51.816;-0.026;2023-03-04T08:14:31;0.00;0.00;0.00
69222;PMS7003;56514;51.816;-0.026;2023-03-04T08:17:17;0.00;0.00;0.00
69222;PMS7003;56514;51.816;-0.026;2023-03-04T08:20:03;0.00;0.00;0.00
69222;PMS7003;56514;51.816;-0.026;2023-03-04T08:22:49;0.25;0.25;0.00
69222;PMS7003;56514;51.816;-0.026;2023-03-04T08:25:37;0.00;0.00;0.00
69222;PMS7003;56514;51.816;-0.026;2023-03-04T08:28:24;0.00;0.00;0.00
69222;PMS7003;56514;51.816;-0.026;2023-03-04T08:31:09;0.00;0.00;0.00
69222;PMS7003;56514;51.816;-0.026;2023-03-04T08:33:55;2.00;0.50;0.00
69222;PMS7003;56514;51.816;-0.026;2023-03-04T08:36:40;0.00;0.00;0.00
69222;PMS7003;56514;51.816;-0.026;2023-03-04T08:39:26;0.75;0.75;0.00
69222;PMS7003;56514;51.816;-0.026;2023-03-04T08:42:11;2.50;2.50;0.00
69222;PMS7003;56514;51.816;-0.026;2023-03-04T08:44:56;1.00;1.00;1.00
69222;PMS7003;56514;51.816;-0.026;2023-03-04T08:47:40;1.00;1.00;1.00
69222;PMS7003;56514;51.816;-0.026;2023-03-04T08:50:25;1.00;1.00;0.50
69222;PMS7003;56514;51.816;-0.026;2023-03-04T08:53:11;1.00;1.00;0.00
69222;PMS7003;56514;51.816;-0.026;2023-03-04T08:55:56;0.75;0.75;0.50
69222;PMS7003;56514;51.816;-0.026;2023-03-04T08:58:41;0.00;0.00;0.00
69222;PMS7003;56514;51.816;-0.026;2023-03-04T09:01:26;3.75;3.75;1.00
69222;PMS7003;56514;51.816;-0.026;2023-03-04T09:04:12;0.00;0.00;0.00
69222;PMS7003;56514;51.816;-0.026;2023-03-04T09:06:56;0.75;0.75;0.00
69222;PMS7003;56514;51.816;-0.026;2023-03-04T09:09:42;1.00;1.00;0.25
69222;PMS7003;56514;51.816;-0.026;2023-03-04T09:12:26;0.00;0.00;0.00
69222;PMS7003;56514;51.816;-0.026;2023-03-04T09:15:12;1.00;1.00;0.00
69222;PMS7003;56514;51.816;-0.026;2023-03-04T09:17:57;1.00;1.00;1.00
69222;PMS7003;56514;51.816;-0.026;2023-03-04T09:20:42;1.50;1.50;0.25
69222;PMS7003;56514;51.816;-0.026;2023-03-04T09:23:28;1.00;1.00;1.00
69222;PMS7003;56514;51.816;-0.026;2023-03-04T09:26:14;1.00;1.00;1.00
69222;PMS7003;56514;51.816;-0.026;2023-03-04T09:29:03;1.00;1.00;1.00
69222;PMS7003;56514;51.816;-0.026;2023-03-04T09:31:48;1.00;1.00;1.00
69222;PMS7003;56514;51.816;-0.026;2023-03-04T09:34:33;1.00;1.00;0.75
69222;PMS7003;56514;51.816;-0.026;2023-03-04T09:37:18;1.50;1.50;0.75
69222;PMS7003;56514;51.816;-0.026;2023-03-04T09:40:04;1.00;1.00;0.00
69222;PMS7003;56514;51.816;-0.026;2023-03-04T09:42:54;0.00;0.00;0.00
69222;PMS7003;56514;51.816;-0.026;2023-03-04T09:45:45;3.00;1.00;0.50
69222;PMS7003;56514;51.816;-0.026;2023-03-04T09:48:38;3.00;1.00;0.00
69222;PMS7003;56514;51.816;-0.026;2023-03-04T09:54:28;4.00;2.50;1.50
69222;PMS7003;56514;51.816;-0.026;2023-03-04T10:00:30;3.00;3.00;1.00
69222;PMS7003;56514;51.816;-0.026;2023-03-04T10:03:24;3.25;3.25;1.50
69222;PMS7003;56514;51.816;-0.026;2023-03-04T10:06:24;3.75;3.75;3.00
69222;PMS7003;56514;51.816;-0.026;2023-03-04T10:09:10;2.00;2.00;1.00
69222;PMS7003;56514;51.816;-0.026;2023-03-04T10:12:03;1.00;1.00;0.25
69222;PMS7003;56514;51.816;-0.026;2023-03-04T10:14:53;3.25;3.25;1.00
69222;PMS7003;56514;51.816;-0.026;2023-03-04T10:17:46;3.00;3.00;2.00
69222;PMS7003;56514;51.816;-0.026;2023-03-04T10:24:12;1.50;1.50;0.50
69222;PMS7003;56514;51.816;-0.026;2023-03-04T10:27:03;2.00;2.00;1.00
69222;PMS7003;56514;51.816;-0.026;2023-03-04T10:29:54;2.50;2.50;1.00
69222;PMS7003;56514;51.816;-0.026;2023-03-04T10:32:47;1.50;1.50;0.75
69222;PMS7003;56514;51.816;-0.026;2023-03-04T10:35:32;1.00;1.00;1.00
69222;PMS7003;56514;51.816;-0.026;2023-03-04T10:38:20;3.00;3.00;1.00
69222;PMS7003;56514;51.816;-0.026;2023-03-04T10:41:17;2.00;2.00;1.00
69222;PMS7003;56514;51.816;-0.026;2023-03-04T10:46:53;2.00;2.00;1.00
69222;PMS7003;56514;51.816;-0.026;2023-03-04T10:49:51;0.25;0.25;0.00
69222;PMS7003;56514;51.816;-0.026;2023-03-04T10:52:38;3.00;3.00;1.00
69222;PMS7003;56514;51.816;-0.026;2023-03-04T10:55:41;3.50;3.50;2.50
69222;PMS7003;56514;51.816;-0.026;2023-03-04T10:58:28;6.75;6.75;4.00
69222;PMS7003;56514;51.816;-0.026;2023-03-04T11:01:14;8.50;8.25;2.00
69222;PMS7003;56514;51.816;-0.026;2023-03-04T11:04:01;6.50;6.50;4.50
69222;PMS7003;56514;51.816;-0.026;2023-03-04T11:06:46;8.00;8.00;5.50
69222;PMS7003;56514;51.816;-0.026;2023-03-04T11:09:31;6.75;6.75;5.50
69222;PMS7003;56514;51.816;-0.026;2023-03-04T11:12:17;6.00;6.00;4.00
69222;PMS7003;56514;51.816;-0.026;2023-03-04T11:15:15;6.25;6.00;3.25
69222;PMS7003;56514;51.816;-0.026;2023-03-04T11:18:09;3.25;3.25;2.25
69222;PMS7003;56514;51.816;-0.026;2023-03-04T11:20:57;4.00;4.00;3.00
69222;PMS7003;56514;51.816;-0.026;2023-03-04T11:26:35;2.50;2.50;1.00
69222;PMS7003;56514;51.816;-0.026;2023-03-04T11:32:20;4.00;4.00;3.00
69222;PMS7003;56514;51.816;-0.026;2023-03-04T11:35:37;1.00;1.00;0.00
69222;PMS7003;56514;51.816;-0.026;2023-03-04T11:38:35;2.50;2.50;1.50
69222;PMS7003;56514;51.816;-0.026;2023-03-04T11:41:31;3.00;3.00;2.50
69222;PMS7003;56514;51.816;-0.026;2023-03-04T11:44:20;1.00;1.00;0.25
69222;PMS7003;56514;51.816;-0.026;2023-03-04T11:53:30;1.00;1.00;1.00
69222;PMS7003;56514;51.816;-0.026;2023-03-04T11:59:36;1.00;1.00;1.00
69222;PMS7003;56514;51.816;-0.026;2023-03-04T12:06:01;1.00;1.00;1.00
69222;PMS7003;56514;51.816;-0.026;2023-03-04T12:33:11;3.25;3.25;2.00
69222;PMS7003;56514;51.816;-0.026;2023-03-04T12:36:19;4.00;4.00;2.75
69222;PMS7003;56514;51.816;-0.026;2023-03-04T12:39:29;5.75;5.75;4.00
69222;PMS7003;56514;51.816;-0.026;2023-03-04T12:46:09;5.00;3.50;1.50
69222;PMS7003;56514;51.816;-0.026;2023-03-04T12:55:38;1.75;1.75;1.25
69222;PMS7003;56514;51.816;-0.026;2023-03-04T12:58:27;3.75;3.75;2.75
69222;PMS7003;56514;51.816;-0.026;2023-03-04T13:04:21;6.75;6.75;4.50
69222;PMS7003;56514;51.816;-0.026;2023-03-04T13:07:16;7.50;7.50;6.25
69222;PMS7003;56514;51.816;-0.026;2023-03-04T13:10:13;50.50;46.75;35.00
69222;PMS7003;56514;51.816;-0.026;2023-03-04T13:13:01;23.33;23.33;18.00
69222;PMS7003;56514;51.816;-0.026;2023-03-04T13:15:50;10.75;9.50;6.00
69222;PMS7003;56514;51.816;-0.026;2023-03-04T13:18:47;11.00;11.00;7.50
69222;PMS7003;56514;51.816;-0.026;2023-03-04T13:21:32;11.00;11.00;8.00
69222;PMS7003;56514;51.816;-0.026;2023-03-04T13:24:46;9.25;9.25;6.25
69222;PMS7003;56514;51.816;-0.026;2023-03-04T13:39:38;9.75;9.75;5.50
69222;PMS7003;56514;51.816;-0.026;2023-03-04T13:42:42;4.50;4.50;4.00
69222;PMS7003;56514;51.816;-0.026;2023-03-04T13:45:29;5.00;5.00;4.00
69222;PMS7003;56514;51.816;-0.026;2023-03-04T13:48:22;11.25;11.25;10.25
69222;PMS7003;56514;51.816;-0.026;2023-03-04T13:59:55;9.25;9.25;6.50
69222;PMS7003;56514;51.816;-0.026;2023-03-04T14:02:41;9.00;9.00;6.25
69222;PMS7003;56514;51.816;-0.026;2023-03-04T14:05:27;4.50;4.50;3.00
69222;PMS7003;56514;51.816;-0.026;2023-03-04T14:08:16;6.25;6.25;5.25
69222;PMS7003;56514;51.816;-0.026;2023-03-04T14:11:02;7.25;7.25;5.25
69222;PMS7003;56514;51.816;-0.026;2023-03-04T14:13:47;8.50;8.50;6.25
69222;PMS7003;56514;51.816;-0.026;2023-03-04T14:16:34;9.25;9.25;8.75
69222;PMS7003;56514;51.816;-0.026;2023-03-04T14:19:25;12.50;12.50;9.50
69222;PMS7003;56514;51.816;-0.026;2023-03-04T14:28:12;3.75;3.75;3.50
69222;PMS7003;56514;51.816;-0.026;2023-03-04T14:31:02;7.00;7.00;4.00
69222;PMS7003;56514;51.816;-0.026;2023-03-04T14:33:49;7.00;7.00;4.50
69222;PMS7003;56514;51.816;-0.026;2023-03-04T14:36:42;4.50;4.50;3.50
69222;PMS7003;56514;51.816;-0.026;2023-03-04T14:39:29;6.00;4.00;3.00
69222;PMS7003;56514;51.816;-0.026;2023-03-04T14:42:17;6.75;6.75;6.00
69222;PMS7003;56514;51.816;-0.026;2023-03-04T14:45:05;5.75;5.75;3.75
69222;PMS7003;56514;51.816;-0.026;2023-03-04T14:47:53;6.00;6.00;3.25
69222;PMS7003;56514;51.816;-0.026;2023-03-04T14:50:48;4.00;4.00;3.00
69222;PMS7003;56514;51.816;-0.026;2023-03-04T14:53:35;6.25;6.25;3.00
69222;PMS7003;56514;51.816;-0.026;2023-03-04T14:56:27;3.50;3.50;3.25
69222;PMS7003;56514;51.816;-0.026;2023-03-04T14:59:13;5.50;5.50;4.00
69222;PMS7003;56514;51.816;-0.026;2023-03-04T15:02:14;3.00;3.00;1.50
69222;PMS7003;56514;51.816;-0.026;2023-03-04T15:08:53;3.00;3.00;1.00
69222;PMS7003;56514;51.816;-0.026;2023-03-04T15:11:22;5.00;5.00;3.25
69222;PMS7003;56514;51.816;-0.026;2023-03-04T15:17:35;3.50;3.50;1.50
69222;PMS7003;56514;51.816;-0.026;2023-03-04T15:20:27;4.00;4.00;3.00
69222;PMS7003;56514;51.816;-0.026;2023-03-04T15:23:14;4.50;4.50;2.00
69222;PMS7003;56514;51.816;-0.026;2023-03-04T15:26:00;6.00;6.00;3.50
69222;PMS7003;56514;51.816;-0.026;2023-03-04T15:28:48;5.00;5.00;3.00
69222;PMS7003;56514;51.816;-0.026;2023-03-04T15:31:33;4.00;4.00;3.00
69222;PMS7003;56514;51.816;-0.026;2023-03-04T15:34:19;4.00;4.00;3.00
69222;PMS7003;56514;51.816;-0.026;2023-03-04T15:37:05;3.00;3.00;1.00
69222;PMS7003;56514;51.816;-0.026;2023-03-04T15:39:54;3.25;3.25;3.00
69222;PMS7003;56514;51.816;-0.026;2023-03-04T15:42:41;3.00;3.00;2.50
69222;PMS7003;56514;51.816;-0.026;2023-03-04T15:45:31;1.00;1.00;1.00
69222;PMS7003;56514;51.816;-0.026;2023-03-04T15:48:21;3.00;3.00;2.00
69222;PMS7003;56514;51.816;-0.026;2023-03-04T15:51:10;4.00;4.00;3.00
69222;PMS7003;56514;51.816;-0.026;2023-03-04T15:53:58;1.50;1.50;1.50
69222;PMS7003;56514;51.816;-0.026;2023-03-04T15:56:44;3.25;3.25;3.25
69222;PMS7003;56514;51.816;-0.026;2023-03-04T15:59:29;5.00;5.00;3.00
69222;PMS7003;56514;51.816;-0.026;2023-03-04T16:02:18;3.50;3.50;2.50
69222;PMS7003;56514;51.816;-0.026;2023-03-04T16:05:06;6.25;6.25;3.25
69222;PMS7003;56514;51.816;-0.026;2023-03-04T16:07:52;5.00;5.00;3.75
69222;PMS7003;56514;51.816;-0.026;2023-03-04T16:10:41;5.50;5.50;3.75
69222;PMS7003;56514;51.816;-0.026;2023-03-04T16:13:27;7.50;7.50;6.00
69222;PMS7003;56514;51.816;-0.026;2023-03-04T16:16:13;6.25;6.25;4.00
69222;PMS7003;56514;51.816;-0.026;2023-03-04T16:18:59;6.00;6.00;3.25
69222;PMS7003;56514;51.816;-0.026;2023-03-04T16:21:45;5.50;5.50;3.25
69222;PMS7003;56514;51.816;-0.026;2023-03-04T16:24:31;4.00;4.00;3.00
69222;PMS7003;56514;51.816;-0.026;2023-03-04T16:27:18;4.00;4.00;3.00
69222;PMS7003;56514;51.816;-0.026;2023-03-04T16:30:07;4.00;4.00;3.00
69222;PMS7003;56514;51.816;-0.026;2023-03-04T16:32:57;6.25;6.25;3.00
69222;PMS7003;56514;51.816;-0.026;2023-03-04T16:35:42;3.50;3.50;3.00
69222;PMS7003;56514;51.816;-0.026;2023-03-04T16:38:29;4.75;4.75;3.25
69222;PMS7003;56514;51.816;-0.026;2023-03-04T16:41:16;4.50;4.00;3.25
69222;PMS7003;56514;51.816;-0.026;2023-03-04T16:44:04;14.67;14.67;9.00
69222;PMS7003;56514;51.816;-0.026;2023-03-04T16:46:51;13.25;11.75;8.50
69222;PMS7003;56514;51.816;-0.026;2023-03-04T16:49:36;72.00;60.75;36.75
69222;PMS7003;56514;51.816;-0.026;2023-03-04T16:52:26;27.33;27.33;19.00
69222;PMS7003;56514;51.816;-0.026;2023-03-04T16:55:17;29.33;29.33;25.00
69222;PMS7003;56514;51.816;-0.026;2023-03-04T16:58:04;23.33;23.33;18.67
69222;PMS7003;56514;51.816;-0.026;2023-03-04T17:00:53;7.00;7.00;6.00
69222;PMS7003;56514;51.816;-0.026;2023-03-04T17:03:39;3.25;3.25;2.50
69222;PMS7003;56514;51.816;-0.026;2023-03-04T17:06:24;6.50;6.50;4.00
69222;PMS7003;56514;51.816;-0.026;2023-03-04T17:09:09;6.00;6.00;4.00
69222;PMS7003;56514;51.816;-0.026;2023-03-04T17:11:54;4.50;4.50;4.50
69222;PMS7003;56514;51.816;-0.026;2023-03-04T17:14:40;4.50;4.50;3.50
69222;PMS7003;56514;51.816;-0.026;2023-03-04T17:17:25;5.50;5.50;4.00
69222;PMS7003;56514;51.816;-0.026;2023-03-04T17:20:10;6.00;6.00;3.25
69222;PMS7003;56514;51.816;-0.026;2023-03-04T17:22:58;6.00;6.00;4.00
69222;PMS7003;56514;51.816;-0.026;2023-03-04T17:25:43;7.50;7.50;3.00
69222;PMS7003;56514;51.816;-0.026;2023-03-04T17:28:28;4.00;4.00;1.00
69222;PMS7003;56514;51.816;-0.026;2023-03-04T17:31:15;7.00;7.00;4.00
69222;PMS7003;56514;51.816;-0.026;2023-03-04T17:34:01;9.00;9.00;4.00
69222;PMS7003;56514;51.816;-0.026;2023-03-04T17:36:47;5.75;5.75;4.00
69222;PMS7003;56514;51.816;-0.026;2023-03-04T17:39:31;4.00;4.00;3.25
69222;PMS7003;56514;51.816;-0.026;2023-03-04T17:42:16;9.00;9.00;6.00
69222;PMS7003;56514;51.816;-0.026;2023-03-04T17:45:02;6.75;6.75;4.50
69222;PMS7003;56514;51.816;-0.026;2023-03-04T17:47:47;6.00;6.00;3.50
69222;PMS7003;56514;51.816;-0.026;2023-03-04T17:50:33;7.00;7.00;4.00
69222;PMS7003;56514;51.816;-0.026;2023-03-04T17:53:18;6.50;6.50;3.50